Time;durP1;ratioP1;P1;durP2;ratioP2;P2;SDS_P1;SDS_P2;PMS_P1;PMS_P2;Temp;Humidity;BMP_temperature;BMP_pressure;BME280_temperature;BME280_humidity;BME280_pressure;Samples;Min_cycle;Max_cycle;Signal;HPM_P1;HPM_P2
2022/01/08 00:01:41;;;;;;;15.20;8.23;;;;;;;-6.73;98.73;97776.84;5009282;28;20765;-58
2022/01/08 00:04:08;;;;;;;15.13;5.70;;;;;;;-6.75;99.28;97770.03;5009054;28;20301;-58
2022/01/08 00:06:35;;;;;;;20.60;6.50;;;;;;;-6.82;99.69;97764.09;5009159;28;20297;-59
2022/01/08 00:09:03;;;;;;;14.53;6.13;;;;;;;-6.89;99.42;97764.97;5009240;28;20395;-58
2022/01/08 00:11:30;;;;;;;19.53;7.07;;;;;;;-6.88;99.71;97763.22;5009392;28;20704;-58
2022/01/08 00:13:57;;;;;;;17.20;7.27;;;;;;;-6.90;99.19;97765.78;5008215;28;20849;-58
2022/01/08 00:16:25;;;;;;;17.27;6.43;;;;;;;-6.90;100.00;97765.78;5009495;28;20361;-58
2022/01/08 00:18:52;;;;;;;15.93;6.17;;;;;;;-6.92;99.89;97761.53;5008209;28;20335;-57
2022/01/08 00:21:20;;;;;;;12.00;6.53;;;;;;;-6.95;100.00;97754.72;5009817;28;20846;-58
2022/01/08 00:23:48;;;;;;;4.63;3.23;;;;;;;-6.95;100.00;97758.97;5009489;28;20362;-58
2022/01/08 00:26:15;;;;;;;14.03;6.10;;;;;;;-7.00;100.00;97753.91;5008623;28;20350;-58
2022/01/08 00:28:42;;;;;;;13.83;5.63;;;;;;;-7.03;100.00;97738.53;5009472;28;20295;-56
2022/01/08 00:31:10;;;;;;;17.70;6.33;;;;;;;-6.97;100.00;97747.91;5009692;28;20372;-58
2022/01/08 00:33:39;;;;;;;13.13;5.20;;;;;;;-6.96;100.00;97745.34;5008506;28;20600;-58
2022/01/08 00:36:06;;;;;;;18.20;7.37;;;;;;;-7.02;100.00;97741.97;5009806;28;21204;-58
2022/01/08 00:38:33;;;;;;;13.60;6.27;;;;;;;-6.98;100.00;97736.81;5008558;28;20301;-58
2022/01/08 00:41:01;;;;;;;18.50;7.37;;;;;;;-6.98;100.00;97741.94;5007841;28;20411;-58
2022/01/08 00:43:28;;;;;;;14.07;7.60;;;;;;;-6.98;100.00;97734.25;5009444;28;20793;-64
2022/01/08 00:45:55;;;;;;;14.83;7.30;;;;;;;-7.04;100.00;97736.00;5009238;28;20662;-58
2022/01/08 00:48:22;;;;;;;14.40;5.73;;;;;;;-7.07;100.00;97730.88;5009673;28;20376;-58
2022/01/08 00:50:52;;;;;;;12.90;6.20;;;;;;;-7.11;100.00;97722.38;5009262;28;20293;-56
2022/01/08 00:53:19;;;;;;;14.60;5.87;;;;;;;-7.10;100.00;97728.31;5009498;28;20292;-58
2022/01/08 00:55:47;;;;;;;14.70;5.20;;;;;;;-7.10;100.00;97721.50;5008018;28;20293;-57
2022/01/08 00:58:14;;;;;;;11.40;5.80;;;;;;;-7.06;100.00;97718.09;5009550;28;20426;-58
2022/01/08 01:00:42;;;;;;;10.33;6.77;;;;;;;-7.07;100.00;97716.38;5010452;28;20285;-59
2022/01/08 01:03:09;;;;;;;11.73;5.90;;;;;;;-7.06;100.00;97710.41;5011750;28;20299;-58
2022/01/08 01:05:36;;;;;;;14.97;6.13;;;;;;;-7.10;100.00;97692.50;5011617;28;20299;-58
2022/01/08 01:08:06;;;;;;;16.57;7.93;;;;;;;-7.17;100.00;97699.34;5010334;28;20343;-58
2022/01/08 01:10:33;;;;;;;18.33;7.00;;;;;;;-7.24;100.00;97697.66;5009864;28;20287;-56
2022/01/08 01:13:00;;;;;;;13.60;5.33;;;;;;;-7.26;100.00;97699.38;5009866;28;20372;-57
2022/01/08 01:15:27;;;;;;;15.80;5.83;;;;;;;-7.22;100.00;97689.97;5013533;28;20347;-58
2022/01/08 01:17:54;;;;;;;12.67;6.03;;;;;;;-7.24;100.00;97697.66;5012057;28;20380;-58
2022/01/08 01:20:22;;;;;;;12.90;5.87;;;;;;;-7.25;100.00;97685.72;5013706;28;20354;-57
2022/01/08 01:22:56;;;;;;;15.53;6.03;;;;;;;-7.27;100.00;97677.19;5013459;28;20331;-57
2022/01/08 01:25:30;;;;;;;12.83;6.13;;;;;;;-7.26;100.00;97685.72;5013650;28;20959;-57
2022/01/08 01:28:08;;;;;;;11.60;5.83;;;;;;;-7.26;100.00;97689.16;5013201;28;20375;-56
2022/01/08 01:41:48;;;;;;;16.03;6.20;;;;;;;-7.34;100.00;97664.44;5013507;28;20375;-57
2022/01/08 01:47:02;;;;;;;15.30;5.50;;;;;;;-7.37;100.00;97667.88;4987602;28;20293;-59
2022/01/08 01:49:31;;;;;;;10.90;4.83;;;;;;;-7.36;100.00;97655.91;5012752;28;20800;-58
2022/01/08 01:51:59;;;;;;;14.70;7.63;;;;;;;-7.37;100.00;97652.53;5014464;28;20112;-57
2022/01/08 01:54:26;;;;;;;12.97;5.37;;;;;;;-7.36;100.00;97645.69;5014571;28;20782;-58
2022/01/08 01:56:55;;;;;;;13.60;5.83;;;;;;;-7.36;100.00;97640.56;5012914;28;20703;-56
2022/01/08 01:59:23;;;;;;;11.50;5.83;;;;;;;-7.36;100.00;97641.44;5010758;28;20837;-57
2022/01/08 02:01:49;;;;;;;14.70;6.07;;;;;;;-7.35;100.00;97632.91;5011498;28;20285;-58
2022/01/08 02:04:17;;;;;;;16.23;4.30;;;;;;;-7.34;100.00;97629.50;5013079;28;20343;-57
2022/01/08 02:06:44;;;;;;;12.57;4.90;;;;;;;-7.34;100.00;97633.75;5012695;28;20841;-57
2022/01/08 02:09:11;;;;;;;9.83;5.13;;;;;;;-7.32;100.00;97626.91;5013027;28;20375;-57
2022/01/08 02:11:57;;;;;;;6.83;3.20;;;;;;;-7.31;100.00;97619.25;5012696;28;20297;-57
2022/01/08 02:14:24;;;;;;;12.03;5.30;;;;;;;-7.30;100.00;97615.00;5012709;28;20289;-58
2022/01/08 02:16:52;;;;;;;20.23;6.97;;;;;;;-7.29;100.00;97617.56;5012598;28;20285;-57
2022/01/08 02:19:19;;;;;;;16.60;5.87;;;;;;;-7.29;100.00;97604.78;5014270;28;20316;-57
2022/01/08 02:21:53;;;;;;;10.90;5.23;;;;;;;-7.31;100.00;97608.19;5012453;28;20296;-56
2022/01/08 02:24:20;;;;;;;7.73;4.13;;;;;;;-7.29;100.00;97602.22;5012835;28;20649;-54
2022/01/08 02:26:47;;;;;;;14.50;5.47;;;;;;;-7.28;100.00;97610.75;5011556;28;20288;-57
2022/01/08 02:29:15;;;;;;;16.03;6.30;;;;;;;-7.29;100.00;97603.91;5013905;28;20725;-57
2022/01/08 02:31:53;;;;;;;9.57;4.90;;;;;;;-7.27;100.00;97603.03;5012488;28;20297;-58
2022/01/08 02:34:20;;;;;;;11.33;5.47;;;;;;;-7.28;100.00;97598.78;5012238;28;20328;-56
2022/01/08 02:36:47;;;;;;;13.30;5.30;;;;;;;-7.26;100.00;97597.09;5012323;28;20300;-57
2022/01/08 02:39:15;;;;;;;10.57;4.13;;;;;;;-7.25;100.00;97587.69;5012276;28;20363;-57
2022/01/08 02:41:42;;;;;;;13.63;5.17;;;;;;;-7.25;100.00;97586.00;5013084;28;20639;-58
2022/01/08 02:44:10;;;;;;;14.67;5.40;;;;;;;-7.24;100.00;97590.25;5013526;28;20285;-55
2022/01/08 02:46:39;;;;;;;7.50;3.57;;;;;;;-7.27;100.00;97587.69;5013887;28;20295;-56
2022/01/08 02:49:06;;;;;;;12.47;4.90;;;;;;;-7.26;100.00;97589.41;5012084;28;20332;-56
2022/01/08 02:51:35;;;;;;;9.20;3.70;;;;;;;-7.28;100.00;97585.19;5013458;28;20293;-55
2022/01/08 02:54:03;;;;;;;7.13;3.33;;;;;;;-7.28;100.00;97582.63;5012240;28;20324;-56
2022/01/08 02:56:31;;;;;;;10.80;5.70;;;;;;;-7.28;100.00;97587.72;5011910;28;20293;-57
2022/01/08 02:58:58;;;;;;;12.50;5.57;;;;;;;-7.29;100.00;97576.63;5013275;28;20297;-56
2022/01/08 03:01:25;;;;;;;8.90;4.93;;;;;;;-7.30;100.00;97574.94;5011972;28;20317;-57
2022/01/08 03:03:56;;;;;;;14.37;5.13;;;;;;;-7.31;100.00;97578.34;5011620;28;20650;-54
2022/01/08 03:06:23;;;;;;;8.03;4.33;;;;;;;-7.32;100.00;97576.66;5011742;28;20399;-57
2022/01/08 03:08:51;;;;;;;5.73;2.77;;;;;;;-7.32;100.00;97575.78;5011840;28;20773;-57
2022/01/08 03:11:18;;;;;;;9.13;4.70;;;;;;;-7.31;100.00;97577.50;5011050;28;20304;-57
2022/01/08 03:13:46;;;;;;;10.37;4.53;;;;;;;-7.32;100.00;97586.88;5011227;28;20317;-58
2022/01/08 03:16:14;;;;;;;9.73;4.53;;;;;;;-7.31;100.00;97588.56;5010940;28;20320;-57
2022/01/08 03:18:42;;;;;;;8.03;3.43;;;;;;;-7.30;100.00;97586.88;5011087;28;20823;-57
2022/01/08 03:21:14;;;;;;;9.83;4.37;;;;;;;-7.30;100.00;97585.19;5010825;28;20305;-57
2022/01/08 03:23:48;;;;;;;10.20;4.28;;;;;;;-7.25;100.00;97582.56;5010771;28;20288;-56
2022/01/08 03:26:16;;;;;;;15.97;6.07;;;;;;;-7.21;100.00;97577.44;5011002;28;20049;-55
2022/01/08 03:28:44;;;;;;;9.97;4.63;;;;;;;-7.11;100.00;97574.00;5011638;28;20046;-54
2022/01/08 03:31:13;;;;;;;8.77;3.87;;;;;;;-7.06;100.00;97577.38;5011424;28;20281;-57
2022/01/08 03:33:40;;;;;;;10.17;4.40;;;;;;;-7.04;100.00;97572.25;5011364;28;20288;-57
2022/01/08 03:36:08;;;;;;;11.67;5.00;;;;;;;-7.01;100.00;97579.94;5011469;28;20320;-56
2022/01/08 03:38:35;;;;;;;14.50;5.23;;;;;;;-7.05;100.00;97571.41;5008974;28;20352;-56
2022/01/08 03:41:03;;;;;;;14.00;5.03;;;;;;;-7.04;100.00;97579.94;5011404;28;20289;-57
2022/01/08 03:43:30;;;;;;;11.33;4.90;;;;;;;-7.03;100.00;97572.25;5012985;28;20340;-56
2022/01/08 03:46:00;;;;;;;11.97;5.50;;;;;;;-7.03;100.00;97558.59;5010910;28;20388;-57
2022/01/08 03:48:31;;;;;;;15.37;5.70;;;;;;;-7.01;100.00;97551.78;5011086;28;20304;-57
2022/01/08 03:50:59;;;;;;;15.27;6.87;;;;;;;-6.99;100.00;97550.06;5010815;28;20749;-57
2022/01/08 03:53:27;;;;;;;10.47;5.20;;;;;;;-7.01;100.00;97546.69;5009777;28;20325;-54
2022/01/08 03:55:55;;;;;;;14.50;5.53;;;;;;;-7.09;100.00;97548.44;5009074;28;20756;-55
2022/01/08 03:58:22;;;;;;;15.90;5.00;;;;;;;-7.10;100.00;97547.56;5009499;28;20299;-55
2022/01/08 04:00:49;;;;;;;8.27;3.87;;;;;;;-7.11;100.00;97550.13;5009697;28;20320;-57
2022/01/08 04:03:18;;;;;;;11.03;4.83;;;;;;;-7.09;100.00;97549.25;5009699;28;20299;-57
2022/01/08 04:05:48;;;;;;;14.40;5.17;;;;;;;-7.09;100.00;97544.13;5009083;28;21213;-57
2022/01/08 04:08:15;;;;;;;10.70;5.43;;;;;;;-7.05;100.00;97545.81;5009535;28;20379;-57
2022/01/08 04:10:44;;;;;;;9.07;3.60;;;;;;;-7.05;100.00;97535.59;5008197;28;20288;-56
2022/01/08 04:13:14;;;;;;;9.63;4.83;;;;;;;-7.10;100.00;97529.66;5004657;28;20296;-58
2022/01/08 04:15:45;;;;;;;8.97;4.53;;;;;;;-7.10;100.00;97534.78;5009096;28;20645;-57
2022/01/08 04:18:12;;;;;;;11.33;5.67;;;;;;;-7.08;100.00;97530.50;5009362;28;20308;-56
2022/01/08 04:20:50;;;;;;;11.63;5.43;;;;;;;-7.06;100.00;97522.81;5009107;28;20805;-57
2022/01/08 04:23:21;;;;;;;8.93;4.40;;;;;;;-7.07;100.00;97532.22;5009606;28;20785;-58
2022/01/08 04:25:49;;;;;;;11.83;4.80;;;;;;;-7.10;100.00;97521.97;5008673;28;20309;-58
2022/01/08 04:28:17;;;;;;;8.13;3.87;;;;;;;-7.11;100.00;97520.28;5003863;28;20318;-57
2022/01/08 04:30:44;;;;;;;7.90;4.73;;;;;;;-7.06;100.00;97510.88;5009391;28;20403;-57
2022/01/08 04:33:12;;;;;;;11.30;5.27;;;;;;;-7.03;100.00;97507.44;5010558;28;20400;-58
2022/01/08 04:35:39;;;;;;;9.27;4.53;;;;;;;-7.08;100.00;97497.25;5008856;28;20317;-58
2022/01/08 04:38:06;;;;;;;10.23;4.80;;;;;;;-7.09;100.00;97497.28;5009044;28;20293;-58
2022/01/08 04:40:37;;;;;;;12.47;4.83;;;;;;;-7.09;100.00;97495.53;5009541;28;20296;-52
2022/01/08 04:43:04;;;;;;;14.17;5.43;;;;;;;-7.13;100.00;97491.31;5009072;28;20281;-56
2022/01/08 04:45:31;;;;;;;11.23;5.47;;;;;;;-7.15;100.00;97482.81;5008048;28;20305;-55
2022/01/08 04:48:00;;;;;;;10.60;4.50;;;;;;;-7.14;100.00;97486.19;5008288;28;20296;-56
2022/01/08 04:50:28;;;;;;;10.63;4.37;;;;;;;-7.20;100.00;97476.84;5012850;28;20730;-57
2022/01/08 04:52:56;;;;;;;6.73;4.23;;;;;;;-7.20;100.00;97478.56;5013215;28;20318;-56
2022/01/08 04:55:24;;;;;;;10.83;4.97;;;;;;;-7.25;100.00;97478.59;5013072;28;20296;-55
2022/01/08 04:57:52;;;;;;;7.40;3.90;;;;;;;-7.22;100.00;97481.13;5012566;28;20297;-57
2022/01/08 05:00:22;;;;;;;9.17;3.87;;;;;;;-7.25;100.00;97485.41;5011979;28;20288;-54
2022/01/08 05:02:50;;;;;;;12.30;4.77;;;;;;;-7.24;100.00;97482.84;5012876;28;20304;-57
2022/01/08 05:05:17;;;;;;;8.77;3.80;;;;;;;-7.26;100.00;97474.34;5012836;28;20324;-54
2022/01/08 05:07:44;;;;;;;9.80;4.70;;;;;;;-7.22;100.00;97470.91;5014276;28;20350;-56
2022/01/08 05:10:12;;;;;;;8.03;4.63;;;;;;;-7.26;100.00;97476.03;5012436;28;20297;-53
2022/01/08 05:12:39;;;;;;;10.57;5.00;;;;;;;-7.27;100.00;97477.75;5013508;28;20292;-56
2022/01/08 05:15:08;;;;;;;13.07;5.97;;;;;;;-7.22;100.00;97478.59;5013575;28;20379;-56
2022/01/08 05:17:36;;;;;;;9.37;5.57;;;;;;;-7.19;100.00;97468.34;5012462;28;20297;-55
2022/01/08 05:20:06;;;;;;;10.03;4.90;;;;;;;-7.20;100.00;97471.72;5012584;28;20289;-56
2022/01/08 05:22:49;;;;;;;9.50;4.57;;;;;;;-7.19;100.00;97478.56;5011555;28;20288;-57
2022/01/08 05:25:17;;;;;;;11.38;4.93;;;;;;;-7.18;100.00;97487.06;5012301;28;20293;-57
2022/01/08 05:27:44;;;;;;;8.33;4.83;;;;;;;-7.19;100.00;97482.81;5013028;28;20038;-57
2022/01/08 05:30:14;;;;;;;12.17;5.50;;;;;;;-7.22;100.00;97485.41;5012285;28;20327;-55
2022/01/08 05:32:41;;;;;;;12.17;6.10;;;;;;;-7.19;100.00;97482.81;5012534;28;20305;-57
2022/01/08 05:35:09;;;;;;;14.37;6.47;;;;;;;-7.16;100.00;97481.09;5012076;28;20475;-55
2022/01/08 05:37:36;;;;;;;12.77;6.43;;;;;;;-7.13;100.00;97485.34;5012325;28;20285;-55
2022/01/08 05:40:04;;;;;;;14.30;6.07;;;;;;;-7.11;100.00;97484.50;5012813;28;20847;-56
2022/01/08 05:42:31;;;;;;;8.70;5.17;;;;;;;-7.09;100.00;97481.91;5010842;28;20291;-56
2022/01/08 05:44:58;;;;;;;11.07;5.30;;;;;;;-7.06;100.00;97487.84;5012016;28;20296;-54
2022/01/08 05:47:30;;;;;;;10.57;5.70;;;;;;;-7.03;100.00;97498.06;5010509;28;20310;-54
2022/01/08 05:49:58;;;;;;;12.57;6.50;;;;;;;-7.03;100.00;97482.72;5012257;28;20292;-55
2022/01/08 05:52:26;;;;;;;9.17;4.60;;;;;;;-6.95;100.00;97488.63;5011325;28;20750;-52
2022/01/08 05:54:53;;;;;;;13.83;6.97;;;;;;;-6.91;100.00;97492.03;5012415;28;20376;-52
2022/01/08 05:57:20;;;;;;;11.77;6.33;;;;;;;-6.89;100.00;97486.03;5010377;28;20284;-55
2022/01/08 05:59:47;;;;;;;10.40;5.53;;;;;;;-6.85;100.00;97497.97;5011538;28;20292;-56
2022/01/08 06:02:14;;;;;;;11.30;6.00;;;;;;;-6.83;100.00;97495.41;5011511;28;20292;-56
2022/01/08 06:04:43;;;;;;;16.20;6.27;;;;;;;-6.82;100.00;97499.63;5011426;28;20307;-55
2022/01/08 06:07:10;;;;;;;12.10;5.23;;;;;;;-6.82;100.00;97497.94;5011643;28;20729;-56
2022/01/08 06:09:37;;;;;;;12.77;6.37;;;;;;;-6.80;100.00;97505.63;5011555;28;20384;-57
2022/01/08 06:12:04;;;;;;;10.63;4.77;;;;;;;-6.81;100.00;97507.31;5012272;28;20320;-55
2022/01/08 06:14:31;;;;;;;11.17;5.13;;;;;;;-6.80;100.00;97501.31;5011609;28;20649;-55
2022/01/08 06:16:58;;;;;;;12.43;5.63;;;;;;;-6.76;100.00;97497.88;5012051;28;20639;-56
2022/01/08 06:19:25;;;;;;;13.70;6.10;;;;;;;-6.70;100.00;97507.22;5011642;28;20391;-57
2022/01/08 06:21:53;;;;;;;13.20;5.60;;;;;;;-6.70;100.00;97505.53;5012096;28;20391;-57
2022/01/08 06:24:21;;;;;;;12.43;5.17;;;;;;;-6.68;100.00;97505.53;5012988;28;20296;-57
2022/01/08 06:26:48;;;;;;;11.43;5.23;;;;;;;-6.65;100.00;97511.44;5011949;28;20300;-56
2022/01/08 06:29:14;;;;;;;11.23;5.60;;;;;;;-6.60;100.00;97511.44;5012008;28;20625;-56
2022/01/08 06:31:41;;;;;;;14.57;6.10;;;;;;;-6.60;100.00;97507.16;5011368;28;20304;-55
2022/01/08 06:34:08;;;;;;;13.00;5.97;;;;;;;-6.54;100.00;97503.72;5011665;28;21127;-54
2022/01/08 06:36:36;;;;;;;15.77;6.10;;;;;;;-6.46;100.00;97496.81;5011738;28;20297;-55
2022/01/08 06:39:04;;;;;;;13.43;5.73;;;;;;;-6.42;100.00;97498.47;5012973;28;20041;-55
2022/01/08 06:41:31;;;;;;;13.70;6.10;;;;;;;-6.38;100.00;97495.88;5011575;28;20336;-55
2022/01/08 06:43:58;;;;;;;11.57;5.53;;;;;;;-6.29;100.00;97499.22;5011321;28;20292;-56
2022/01/08 20:30:10;;;;;;;22.13;9.27;;;;;;;-2.65;100.00;96887.06;5643397;22;20022;-72
2022/01/08 20:32:39;;;;;;;15.23;7.63;;;;;;;-2.69;100.00;96882.03;5080069;28;20097;-67
2022/01/08 20:35:08;;;;;;;17.60;8.23;;;;;;;-2.66;100.00;96881.94;5108613;28;20486;-68
2022/01/08 20:37:35;;;;;;;15.50;8.10;;;;;;;-2.66;100.00;96881.94;5100988;28;20051;-68
2022/01/08 20:40:05;;;;;;;26.23;11.63;;;;;;;-2.64;100.00;96877.56;5102198;28;20051;-68
2022/01/08 20:42:32;;;;;;;17.67;8.40;;;;;;;-2.67;100.00;96873.38;5101186;28;20052;-69
2022/01/08 20:44:59;;;;;;;18.33;8.63;;;;;;;-2.65;100.00;96871.59;5095582;28;20126;-67
2022/01/08 20:47:26;;;;;;;19.37;7.93;;;;;;;-2.70;100.00;96863.16;5083276;28;20117;-70
2022/01/08 20:49:55;;;;;;;17.37;9.70;;;;;;;-2.75;100.00;96858.16;5096957;28;20040;-69
2022/01/08 20:52:22;;;;;;;15.80;6.90;;;;;;;-2.67;100.00;96862.22;5099199;28;20052;-68
2022/01/08 20:54:49;;;;;;;15.60;8.57;;;;;;;-2.66;100.00;96857.00;5107526;28;20054;-68
2022/01/08 20:57:16;;;;;;;21.07;10.50;;;;;;;-2.64;100.00;96862.97;5099572;28;20096;-68
2022/01/08 20:59:43;;;;;;;21.53;10.70;;;;;;;-2.59;100.00;96858.50;5093958;28;20503;-69
2022/01/08 21:02:10;;;;;;;12.63;7.13;;;;;;;-2.58;100.00;96856.78;5098845;28;20051;-67
2022/01/08 21:04:37;;;;;;;24.60;9.43;;;;;;;-2.61;100.00;96852.56;5096007;28;20091;-67
2022/01/08 21:07:05;;;;;;;12.13;6.27;;;;;;;-2.64;100.00;96844.94;5102924;28;20040;-67
2022/01/08 21:09:32;;;;;;;17.07;8.07;;;;;;;-2.64;100.00;96841.50;5105905;28;20048;-70
2022/01/08 21:11:59;;;;;;;15.57;8.33;;;;;;;-2.67;100.00;96837.31;5094197;28;20110;-70
2022/01/08 21:14:26;;;;;;;20.77;8.53;;;;;;;-2.66;100.00;96838.97;5101419;28;20351;-68
2022/01/08 21:17:41;;;;;;;20.57;10.33;;;;;;;0.19;100.00;96838.84;5004475;27;20386;-68
2022/01/08 21:21:54;;;;;;;19.27;8.73;;;;;;;-1.58;100.00;96831.84;4990611;27;20758;-67
2022/01/08 21:25:22;;;;;;;19.07;8.87;;;;;;;-2.09;100.00;96822.44;5036251;27;20889;-68
2022/01/08 21:27:49;;;;;;;17.50;8.20;;;;;;;-2.07;100.00;96823.22;5069397;28;20044;-68
2022/01/08 21:30:18;;;;;;;17.00;8.97;;;;;;;-2.05;100.00;96811.13;5068533;28;20439;-70
2022/01/08 21:32:46;;;;;;;20.97;8.90;;;;;;;-2.09;100.00;96811.31;5067163;28;20140;-69
2022/01/08 21:35:15;;;;;;;23.73;10.30;;;;;;;-2.09;100.00;96808.72;5064913;28;20029;-67
2022/01/08 21:37:52;;;;;;;21.33;9.57;;;;;;;-2.07;100.00;96812.94;5066525;28;20499;-65
2022/01/08 21:40:22;;;;;;;24.33;11.80;;;;;;;-2.08;100.00;96806.06;5065278;28;20053;-68
2022/01/08 21:42:49;;;;;;;20.30;9.70;;;;;;;-2.02;100.00;96799.88;5066489;28;20049;-68
2022/01/08 21:45:19;;;;;;;23.27;9.23;;;;;;;-2.07;100.00;96805.19;5063715;28;20041;-68
2022/01/08 21:47:47;;;;;;;20.93;11.30;;;;;;;-2.05;100.00;96803.41;5066057;28;20068;-68
2022/01/08 21:50:19;;;;;;;24.93;9.77;;;;;;;-2.02;100.00;96805.88;5065268;28;20123;-60
2022/01/08 21:52:47;;;;;;;22.40;10.70;;;;;;;-1.99;100.00;96799.75;5065863;28;20063;-60
2022/01/08 21:55:17;;;;;;;14.80;7.07;;;;;;;-1.98;100.00;96802.28;5064701;28;20110;-61
2022/01/08 21:57:46;;;;;;;15.63;7.13;;;;;;;-2.00;100.00;96793.78;5066117;28;20048;-58
2022/01/08 22:00:18;;;;;;;22.07;10.13;;;;;;;-2.03;100.00;96793.91;5066111;28;20461;-59
2022/01/08 22:02:52;;;;;;;16.70;8.40;;;;;;;-2.08;100.00;96785.47;5064594;28;20060;-59
2022/01/08 22:05:20;;;;;;;16.77;8.40;;;;;;;-2.09;100.00;96770.91;5065616;28;20073;-60
2022/01/08 22:07:47;;;;;;;17.47;8.17;;;;;;;-2.12;100.00;96760.69;5065204;28;20061;-60
2022/01/08 22:10:15;;;;;;;19.87;9.50;;;;;;;-2.06;100.00;96765.66;5065158;28;20072;-59
2022/01/08 22:12:42;;;;;;;18.37;9.50;;;;;;;-2.03;100.00;96755.25;5064529;28;20111;-58
2022/01/08 22:15:12;;;;;;;18.87;9.00;;;;;;;-2.05;100.00;96751.88;5064868;28;20061;-59
2022/01/08 22:17:40;;;;;;;17.70;9.37;;;;;;;-2.04;100.00;96739.84;5066265;28;20419;-59
2022/01/08 22:20:08;;;;;;;14.10;7.20;;;;;;;-2.01;100.00;96742.31;5064977;28;20045;-59
2022/01/08 22:22:39;;;;;;;20.37;8.17;;;;;;;-1.99;100.00;96736.19;5064518;28;20037;-59
2022/01/08 22:25:10;;;;;;;23.83;10.23;;;;;;;-1.89;100.00;96737.56;5064186;28;20053;-60
2022/01/08 22:27:41;;;;;;;18.90;8.90;;;;;;;-1.93;100.00;96741.16;5064198;28;20365;-59
2022/01/08 22:30:13;;;;;;;21.00;9.43;;;;;;;-1.93;100.00;96737.72;5064819;28;20049;-57
2022/01/08 22:32:40;;;;;;;17.17;8.60;;;;;;;-1.99;100.00;96728.47;5061780;28;20151;-59
2022/01/08 22:35:08;;;;;;;13.87;6.83;;;;;;;-2.02;100.00;96728.56;5059990;28;20128;-59
2022/01/08 22:37:36;;;;;;;20.57;9.23;;;;;;;-2.02;100.00;96723.41;5050907;28;20749;-59
2022/01/08 22:40:04;;;;;;;16.53;8.20;;;;;;;-1.97;100.00;96716.34;5048840;28;20049;-59
2022/01/08 22:42:32;;;;;;;20.33;10.53;;;;;;;-1.96;100.00;96709.47;5051187;28;20489;-59
2022/01/08 22:44:59;;;;;;;15.27;7.23;;;;;;;-1.98;100.00;96704.38;5051104;28;20037;-59
2022/01/08 22:47:28;;;;;;;17.97;8.23;;;;;;;-2.00;100.00;96701.03;5051295;28;20033;-59
2022/01/08 22:49:55;;;;;;;9.87;4.70;;;;;;;-1.98;100.00;96700.97;5050958;28;20049;-59
2022/01/08 22:52:22;;;;;;;17.77;8.73;;;;;;;-2.03;100.00;96702.88;5050880;28;20445;-60
2022/01/08 22:54:52;;;;;;;17.77;8.33;;;;;;;-2.00;100.00;96700.19;5050703;28;20064;-60
2022/01/08 22:57:21;;;;;;;21.00;8.10;;;;;;;-2.01;100.00;96695.94;5051784;28;20128;-59
2022/01/08 22:59:48;;;;;;;14.97;7.90;;;;;;;-2.01;100.00;96694.19;5051114;28;20158;-60
2022/01/08 23:02:16;;;;;;;15.60;8.10;;;;;;;-2.00;100.00;96684.72;5051325;28;20067;-60
2022/01/08 23:04:47;;;;;;;16.77;7.53;;;;;;;-2.00;100.00;96684.72;5050303;28;20386;-60
2022/01/08 23:07:20;;;;;;;15.70;7.93;;;;;;;-1.97;100.00;96682.84;5050243;28;20079;-60
2022/01/08 23:09:47;;;;;;;11.20;6.43;;;;;;;-1.97;100.00;96677.72;5050141;28;20044;-60
2022/01/08 23:12:14;;;;;;;17.10;7.83;;;;;;;-2.02;100.00;96671.91;5051115;28;20150;-60
2022/01/08 23:14:41;;;;;;;12.07;5.90;;;;;;;-1.98;100.00;96664.91;5047680;28;20041;-60
2022/01/08 23:17:08;;;;;;;14.07;6.87;;;;;;;-2.00;100.00;96666.69;5051258;28;20406;-60
2022/01/08 23:19:36;;;;;;;10.93;6.07;;;;;;;-2.03;100.00;96659.91;5051345;28;20045;-60
2022/01/08 23:22:05;;;;;;;13.10;5.97;;;;;;;-1.98;100.00;96652.03;5051125;28;20040;-59
2022/01/08 23:24:32;;;;;;;14.20;6.67;;;;;;;-1.96;100.00;96655.38;5051201;28;20499;-60
2022/01/08 23:26:59;;;;;;;13.97;7.93;;;;;;;-1.97;100.00;96649.38;5051539;28;20077;-60
2022/01/08 23:29:27;;;;;;;13.70;7.23;;;;;;;-1.95;100.00;96645.00;5050054;28;20553;-60
2022/01/08 23:31:54;;;;;;;8.93;5.30;;;;;;;-1.96;100.00;96645.91;5052261;28;20048;-58
2022/01/08 23:34:21;;;;;;;13.93;5.80;;;;;;;-2.04;100.00;96637.63;5052100;28;20053;-59
2022/01/08 23:36:48;;;;;;;10.03;4.87;;;;;;;-2.00;100.00;96636.63;5051222;28;20072;-59
2022/01/08 23:39:16;;;;;;;16.73;7.27;;;;;;;-2.02;100.00;96637.53;5051256;28;20049;-59
2022/01/08 23:41:43;;;;;;;19.37;8.57;;;;;;;-2.02;100.00;96640.97;5051162;28;20068;-59
2022/01/08 23:44:10;;;;;;;15.33;7.60;;;;;;;-1.95;100.00;96639.00;5050721;28;20050;-59
2022/01/08 23:46:37;;;;;;;16.13;7.03;;;;;;;-1.94;100.00;96635.56;5047088;28;20063;-59
2022/01/08 23:49:11;;;;;;;15.77;8.43;;;;;;;-1.93;100.00;96630.34;5050631;28;20386;-58
2022/01/08 23:51:38;;;;;;;11.87;5.23;;;;;;;-1.91;100.00;96625.94;5050682;28;20523;-58
2022/01/08 23:54:05;;;;;;;14.57;7.67;;;;;;;-1.90;100.00;96624.22;5050533;28;20087;-60
2022/01/08 23:56:34;;;;;;;14.07;5.53;;;;;;;-1.89;100.00;96628.47;5051392;28;20042;-59
2022/01/08 23:59:02;;;;;;;15.13;7.40;;;;;;;-1.95;100.00;96623.53;5051326;28;20127;-59
